Time;durP1;ratioP1;P1;durP2;ratioP2;P2;SDS_P1;SDS_P2;PMS_P1;PMS_P2;Temp;Humidity;BMP_temperature;BMP_pressure;BME280_temperature;BME280_humidity;BME280_pressure;Samples;Min_cycle;Max_cycle;Signal;HPM_P1;HPM_P2
2022/02/04 00:02:45;;;;;;;9.40;4.90;;;7.30;99.90;;;;;;5058017;28;20448;-60
2022/02/04 00:04:54;;;;;;;16.40;5.87;;;7.30;99.90;;;;;;5094357;28;20487;-59
2022/02/04 00:07:42;;;;;;;13.43;6.60;;;7.40;99.90;;;;;;5094310;28;20574;-59
2022/02/04 00:21:25;;;;;;;14.90;6.00;;;7.40;99.90;;;;;;5094740;28;20770;-60
2022/02/04 00:23:52;;;;;;;10.70;6.67;;;7.50;99.90;;;;;;5094755;28;20826;-57
2022/02/04 00:26:22;;;;;;;11.50;6.90;;;7.50;99.90;;;;;;5094027;28;20991;-59
2022/02/04 00:28:57;;;;;;;8.03;5.60;;;7.50;99.90;;;;;;5094297;28;20479;-59
2022/02/04 00:31:31;;;;;;;17.10;6.70;;;7.50;99.90;;;;;;5094538;28;20471;-59
2022/02/04 00:34:03;;;;;;;11.50;6.03;;;7.50;99.90;;;;;;5094637;28;20455;-58
2022/02/04 00:36:38;;;;;;;11.57;6.90;;;7.50;99.90;;;;;;5094510;28;20473;-60
2022/02/04 00:39:09;;;;;;;15.10;7.93;;;7.60;99.90;;;;;;5094251;28;20444;-60
2022/02/04 00:41:38;;;;;;;9.50;6.33;;;7.60;99.90;;;;;;5094887;28;20910;-61
2022/02/04 00:44:06;;;;;;;14.53;7.57;;;7.60;99.90;;;;;;5094403;28;20488;-58
2022/02/04 00:46:40;;;;;;;10.33;6.40;;;7.70;99.90;;;;;;5094289;28;20446;-58
2022/02/04 00:49:12;;;;;;;13.03;8.13;;;7.70;99.90;;;;;;5094326;28;20497;-59
2022/02/04 00:51:50;;;;;;;16.70;7.50;;;7.70;99.90;;;;;;5094403;28;20457;-61
2022/02/04 00:54:23;;;;;;;12.93;6.00;;;7.80;99.90;;;;;;5094424;28;20433;-56
2022/02/04 00:57:08;;;;;;;13.13;6.70;;;7.70;99.90;;;;;;5094128;28;20523;-54
2022/02/04 01:13:29;;;;;;;10.40;6.53;;;7.60;99.90;;;;;;5095385;28;20455;-61
2022/02/04 01:26:56;;;;;;;11.87;7.20;;;7.50;99.90;;;;;;5098356;28;20502;-60
2022/02/04 01:29:25;;;;;;;16.77;9.23;;;7.50;99.90;;;;;;5098409;28;20496;-58
2022/02/04 01:31:52;;;;;;;13.67;7.23;;;7.50;99.90;;;;;;5097731;28;20537;-56
2022/02/04 01:34:19;;;;;;;14.20;7.70;;;7.60;99.90;;;;;;5097696;28;20849;-59
2022/02/04 01:36:46;;;;;;;15.67;8.00;;;7.60;99.90;;;;;;5097447;28;20472;-56
2022/02/04 01:39:14;;;;;;;11.37;8.20;;;7.50;99.90;;;;;;5097697;28;20446;-59
2022/02/04 01:41:41;;;;;;;16.43;7.83;;;7.50;99.90;;;;;;5097495;28;20473;-58
2022/02/04 01:44:24;;;;;;;12.73;6.80;;;7.50;99.90;;;;;;5097611;28;20870;-59
2022/02/04 01:46:52;;;;;;;13.60;7.40;;;7.50;99.90;;;;;;5097440;28;20483;-59
2022/02/04 01:49:18;;;;;;;17.50;7.77;;;7.50;99.90;;;;;;5097539;28;20748;-61
2022/02/04 01:51:46;;;;;;;15.13;7.13;;;7.50;99.90;;;;;;5098339;28;20457;-60
2022/02/04 01:54:14;;;;;;;15.77;7.47;;;7.50;99.90;;;;;;5097515;28;20507;-61
2022/02/04 01:56:41;;;;;;;14.63;7.17;;;7.50;99.90;;;;;;5097069;28;20951;-60
2022/02/04 01:59:08;;;;;;;12.80;7.20;;;7.50;99.90;;;;;;5097097;28;20526;-60
2022/02/04 02:01:35;;;;;;;14.53;6.80;;;7.50;99.90;;;;;;5097046;28;20452;-60
2022/02/04 02:04:04;;;;;;;15.10;8.17;;;7.50;99.90;;;;;;5097056;28;20485;-62
2022/02/04 02:06:49;;;;;;;10.50;6.70;;;7.50;99.90;;;;;;5097022;28;21017;-59
2022/02/04 02:09:18;;;;;;;15.13;7.20;;;7.50;99.90;;;;;;5097089;28;20577;-60
2022/02/04 02:11:52;;;;;;;10.90;5.97;;;7.50;99.90;;;;;;5097922;28;20758;-59
2022/02/04 02:14:22;;;;;;;12.50;7.90;;;7.50;99.90;;;;;;5097744;28;20489;-62
2022/02/04 02:33:51;;;;;;;17.57;8.60;;;7.20;99.90;;;;;;5096501;28;20491;-60
2022/02/04 02:39:25;;;;;;;13.60;7.43;;;7.10;99.90;;;;;;5096666;28;20395;-60
2022/02/04 02:44:44;;;;;;;12.27;7.70;;;7.10;99.90;;;;;;5096256;28;20419;-59
2022/02/04 02:50:23;;;;;;;17.30;7.37;;;7.10;99.90;;;;;;5094113;28;20516;-60
2022/02/04 02:53:24;;;;;;;21.63;9.83;;;7.10;99.90;;;;;;5095997;28;20937;-60
2022/02/04 02:56:17;;;;;;;13.30;7.37;;;7.10;99.90;;;;;;5096198;28;20460;-57
2022/02/04 02:58:49;;;;;;;13.43;6.70;;;7.00;99.90;;;;;;5096166;28;20508;-60
2022/02/04 03:01:15;;;;;;;16.73;8.03;;;7.00;99.90;;;;;;5096546;28;20512;-58
2022/02/04 03:03:44;;;;;;;16.97;9.03;;;7.00;99.90;;;;;;5095990;28;20473;-59
2022/02/04 03:06:11;;;;;;;19.27;8.47;;;7.00;99.90;;;;;;5095777;28;20920;-59
2022/02/04 03:08:38;;;;;;;18.37;9.20;;;7.00;99.90;;;;;;5095555;28;20484;-59
2022/02/04 03:11:06;;;;;;;18.40;7.60;;;7.00;99.90;;;;;;5095802;28;20468;-59
2022/02/04 03:13:34;;;;;;;17.13;8.80;;;7.00;99.90;;;;;;5095903;28;20446;-59
2022/02/04 03:16:04;;;;;;;14.37;7.40;;;7.00;99.90;;;;;;5095678;28;20972;-59
2022/02/04 03:18:34;;;;;;;15.00;8.50;;;7.00;99.90;;;;;;5095868;28;20433;-59
2022/02/04 03:21:07;;;;;;;17.80;8.63;;;7.00;99.90;;;;;;5095677;28;20481;-58
2022/02/04 03:23:37;;;;;;;13.73;7.27;;;7.10;99.90;;;;;;5096672;28;20436;-64
2022/02/04 03:26:10;;;;;;;14.10;8.00;;;7.00;99.90;;;;;;5095804;28;20930;-59
2022/02/04 03:28:38;;;;;;;17.23;7.33;;;7.00;99.90;;;;;;5095595;28;20472;-59
2022/02/04 03:31:06;;;;;;;16.03;9.53;;;7.00;99.90;;;;;;5095688;28;20444;-59
2022/02/04 03:33:34;;;;;;;19.40;8.97;;;7.00;99.90;;;;;;5095543;28;20448;-58
2022/02/04 03:36:01;;;;;;;20.67;9.67;;;7.10;99.90;;;;;;5094875;28;20913;-58
2022/02/04 03:38:27;;;;;;;16.13;8.73;;;7.10;99.90;;;;;;5095291;28;20487;-60
2022/02/04 03:40:54;;;;;;;14.33;7.43;;;7.00;99.90;;;;;;5095506;28;20499;-64
2022/02/04 03:43:22;;;;;;;18.40;8.50;;;7.00;99.90;;;;;;5095317;28;20471;-59
2022/02/04 03:45:49;;;;;;;17.63;7.83;;;7.00;99.90;;;;;;5095884;28;20453;-63
2022/02/04 03:48:16;;;;;;;14.07;7.37;;;6.90;99.90;;;;;;5095729;28;20443;-60
2022/02/04 03:50:42;;;;;;;17.67;8.30;;;7.00;99.90;;;;;;5095194;28;20445;-60
2022/02/04 03:53:12;;;;;;;17.90;8.50;;;7.00;99.90;;;;;;5095219;28;20447;-55
2022/02/04 03:55:39;;;;;;;15.47;8.47;;;7.00;99.90;;;;;;5095181;28;20522;-61
2022/02/04 03:58:06;;;;;;;17.67;8.13;;;7.00;99.90;;;;;;5094946;28;20452;-60
2022/02/04 04:00:34;;;;;;;12.80;8.00;;;6.90;99.90;;;;;;5094943;28;20455;-60
2022/02/04 04:03:01;;;;;;;15.80;8.10;;;7.00;99.90;;;;;;5095173;28;20428;-60
2022/02/04 04:05:28;;;;;;;12.30;7.13;;;7.00;99.90;;;;;;5094904;28;20526;-60
2022/02/04 04:07:55;;;;;;;17.90;8.77;;;7.00;99.90;;;;;;5095105;28;20869;-64
2022/02/04 04:10:24;;;;;;;17.97;8.53;;;7.00;99.90;;;;;;5095563;28;20483;-60
2022/02/04 04:12:53;;;;;;;18.07;8.10;;;7.00;99.90;;;;;;5094825;28;20804;-60
2022/02/04 04:15:20;;;;;;;12.40;7.27;;;7.00;99.90;;;;;;5095079;28;20527;-60
2022/02/04 04:17:48;;;;;;;16.90;8.30;;;7.10;99.90;;;;;;5094906;28;20468;-59
2022/02/04 04:20:17;;;;;;;13.43;6.70;;;7.00;99.90;;;;;;5094662;28;20517;-60
2022/02/04 04:22:44;;;;;;;16.93;9.70;;;7.00;99.90;;;;;;5094714;28;20545;-60
2022/02/04 04:25:11;;;;;;;18.20;8.40;;;7.00;99.90;;;;;;5094779;28;20514;-60
2022/02/04 04:27:40;;;;;;;19.10;9.30;;;7.00;99.90;;;;;;5094592;28;20506;-59
2022/02/04 04:30:09;;;;;;;16.70;9.70;;;7.00;99.90;;;;;;5095007;28;20548;-63
2022/02/04 04:32:35;;;;;;;13.13;6.93;;;7.00;99.90;;;;;;5095556;28;20442;-59
2022/02/04 04:35:05;;;;;;;23.37;8.43;;;7.00;99.90;;;;;;5094958;28;20445;-60
2022/02/04 04:37:32;;;;;;;13.00;6.70;;;7.00;99.90;;;;;;5094814;28;20453;-60
2022/02/04 04:40:16;;;;;;;15.70;8.87;;;7.10;99.90;;;;;;5094523;28;20576;-60
2022/02/04 04:42:55;;;;;;;16.83;7.23;;;7.00;99.90;;;;;;5094593;28;20892;-60
2022/02/04 04:45:51;;;;;;;15.60;8.40;;;7.00;99.90;;;;;;5094708;28;20484;-59
2022/02/04 05:27:44;;;;;;;14.20;7.70;;;7.00;99.90;;;;;;5097762;28;20428;-61
2022/02/04 05:29:57;;;;;;;14.77;6.50;;;7.00;99.90;;;;;;5097359;28;20502;-57
2022/02/04 05:32:23;;;;;;;15.27;7.83;;;6.90;99.90;;;;;;5097632;28;20444;-59
2022/02/04 05:34:51;;;;;;;17.53;8.20;;;6.90;99.90;;;;;;5097190;28;20512;-55
2022/02/04 05:37:20;;;;;;;20.73;9.13;;;7.00;99.90;;;;;;5095792;28;20443;-59
2022/02/04 05:39:54;;;;;;;14.97;8.17;;;6.90;99.90;;;;;;5097704;28;20454;-63
2022/02/04 05:42:25;;;;;;;16.50;8.80;;;7.00;99.90;;;;;;5098275;28;20453;-60
2022/02/04 05:44:58;;;;;;;12.13;6.20;;;7.00;99.90;;;;;;5097591;28;20425;-59
2022/02/04 05:47:24;;;;;;;15.77;8.03;;;7.00;99.90;;;;;;5097560;28;20459;-61
2022/02/04 05:50:06;;;;;;;18.20;9.00;;;7.00;99.90;;;;;;5097462;28;20494;-61
2022/02/04 05:52:48;;;;;;;15.13;7.13;;;6.90;99.90;;;;;;5097438;28;20929;-63
2022/02/04 05:55:29;;;;;;;15.40;7.77;;;6.90;99.90;;;;;;5097279;28;20749;-60
2022/02/04 05:58:01;;;;;;;15.97;7.80;;;7.00;99.90;;;;;;5097248;28;20481;-59
2022/02/04 06:00:37;;;;;;;17.10;8.43;;;6.90;99.90;;;;;;5096897;28;20440;-59
2022/02/04 06:03:26;;;;;;;14.60;7.27;;;6.90;99.90;;;;;;5097010;28;20948;-66
2022/02/04 06:06:10;;;;;;;21.20;10.73;;;7.00;99.90;;;;;;5097696;28;20433;-59
2022/02/04 06:09:01;;;;;;;23.33;9.87;;;6.90;99.90;;;;;;5096856;28;20476;-61
2022/02/04 06:11:40;;;;;;;20.40;9.60;;;6.90;99.90;;;;;;5097125;28;20426;-61
2022/02/04 06:14:30;;;;;;;14.13;8.13;;;7.00;99.90;;;;;;5096861;28;20563;-59
2022/02/04 06:22:28;;;;;;;12.93;7.63;;;6.90;99.90;;;;;;5096757;28;20417;-58
2022/02/04 06:24:57;;;;;;;15.80;8.07;;;6.90;99.90;;;;;;5096454;28;20467;-57
2022/02/04 06:27:27;;;;;;;16.70;8.97;;;6.90;99.90;;;;;;5096236;28;21001;-60
2022/02/04 06:29:56;;;;;;;13.73;7.57;;;6.90;99.90;;;;;;5096575;28;20474;-60
2022/02/04 06:32:23;;;;;;;20.80;9.43;;;6.90;99.90;;;;;;5095669;28;20857;-59
2022/02/04 06:34:51;;;;;;;16.10;8.13;;;6.90;99.90;;;;;;5096529;28;20505;-59
2022/02/04 06:37:18;;;;;;;17.63;7.80;;;6.90;99.90;;;;;;5096496;28;20574;-61
2022/02/04 06:39:45;;;;;;;16.43;8.73;;;6.90;99.90;;;;;;5096551;28;20448;-60
2022/02/04 06:42:11;;;;;;;16.00;9.27;;;6.90;99.90;;;;;;5096293;28;20805;-61
2022/02/04 06:44:39;;;;;;;14.83;8.07;;;6.90;99.90;;;;;;5097526;28;20452;-61
2022/02/04 06:47:06;;;;;;;14.33;7.73;;;7.00;99.90;;;;;;5100156;28;20565;-59
2022/02/04 06:49:33;;;;;;;16.50;7.57;;;7.00;99.90;;;;;;5100143;28;20498;-60
2022/02/04 06:52:00;;;;;;;18.27;8.60;;;6.90;99.90;;;;;;5099926;28;20460;-60
2022/02/04 06:54:27;;;;;;;11.70;6.70;;;6.90;99.90;;;;;;5100459;28;20857;-60
2022/02/04 06:56:54;;;;;;;20.60;10.47;;;7.00;99.90;;;;;;5099900;28;20448;-58
2022/02/04 06:59:21;;;;;;;16.20;8.83;;;6.90;99.90;;;;;;5099495;28;20996;-61
2022/02/04 07:01:49;;;;;;;18.17;9.20;;;6.90;99.90;;;;;;5099996;28;20460;-62
2022/02/04 07:04:16;;;;;;;13.70;7.63;;;6.90;99.90;;;;;;5102204;28;20472;-61
2022/02/04 07:06:51;;;;;;;16.63;8.63;;;6.90;99.90;;;;;;5102147;28;20839;-61
2022/02/04 07:09:25;;;;;;;17.60;9.20;;;7.00;99.90;;;;;;5101119;28;20429;-60
2022/02/04 07:12:19;;;;;;;21.03;8.97;;;7.00;99.90;;;;;;5099207;28;20476;-60
2022/02/04 07:15:06;;;;;;;15.33;8.40;;;7.10;99.90;;;;;;5099589;28;20444;-60
2022/02/04 07:17:41;;;;;;;15.30;8.13;;;7.00;99.90;;;;;;5099498;28;20436;-60
2022/02/04 07:20:07;;;;;;;19.67;8.70;;;7.10;99.90;;;;;;5099718;28;20463;-59
2022/02/04 07:22:34;;;;;;;14.50;8.63;;;7.10;99.90;;;;;;5116283;28;20455;-49
2022/02/04 07:25:04;;;;;;;14.77;7.47;;;7.10;99.90;;;;;;5135666;28;20896;-49
2022/02/04 07:27:32;;;;;;;17.60;8.77;;;7.20;99.90;;;;;;5135453;28;20514;-57
2022/02/04 07:29:59;;;;;;;16.50;8.17;;;7.20;99.90;;;;;;5135672;28;20475;-58
2022/02/04 07:32:32;;;;;;;17.43;8.23;;;7.20;99.90;;;;;;5136006;28;20477;-48
2022/02/04 07:35:17;;;;;;;19.97;7.97;;;7.20;99.90;;;;;;5134861;28;20487;-57
2022/02/04 07:43:12;;;;;;;13.93;7.70;;;7.30;99.90;;;;;;5135587;28;20673;-54
2022/02/04 07:45:40;;;;;;;13.73;7.80;;;7.30;99.90;;;;;;5135166;28;20462;-56
2022/02/04 07:48:09;;;;;;;16.93;7.80;;;7.30;99.90;;;;;;5135710;28;20658;-55
2022/02/04 07:50:37;;;;;;;14.47;8.70;;;7.30;99.90;;;;;;5135498;28;20485;-57
2022/02/04 07:53:04;;;;;;;12.60;7.00;;;7.40;99.90;;;;;;5135554;28;20431;-54
2022/02/04 07:55:30;;;;;;;18.87;8.63;;;7.50;99.90;;;;;;5135449;28;20434;-58
2022/02/04 07:57:57;;;;;;;13.93;9.30;;;7.40;99.90;;;;;;5135134;28;20455;-57
2022/02/04 08:00:24;;;;;;;13.63;7.27;;;7.50;99.90;;;;;;5135471;28;20444;-52
2022/02/04 08:02:52;;;;;;;15.10;7.47;;;7.50;99.90;;;;;;5135095;28;20471;-54
2022/02/04 08:05:28;;;;;;;10.83;6.67;;;7.50;99.90;;;;;;5135750;28;20429;-59
2022/02/04 08:08:02;;;;;;;12.23;6.73;;;7.50;99.90;;;;;;5135643;28;20431;-53
2022/02/04 08:10:42;;;;;;;13.27;7.57;;;7.40;99.90;;;;;;5135906;28;20477;-50
2022/02/04 08:21:54;;;;;;;13.43;6.30;;;7.40;99.90;;;;;;5119289;28;20462;-58
2022/02/04 08:24:38;;;;;;;12.47;6.17;;;7.40;99.90;;;;;;5127945;28;20543;-59
2022/02/04 08:27:31;;;;;;;11.00;5.77;;;7.40;99.90;;;;;;5126771;28;20955;-59
2022/02/04 08:30:20;;;;;;;16.57;6.50;;;7.40;99.90;;;;;;5128464;28;20480;-59
2022/02/04 08:32:58;;;;;;;8.27;5.73;;;7.50;99.90;;;;;;5129888;28;20476;-57
2022/02/04 08:35:45;;;;;;;9.50;5.30;;;7.50;99.90;;;;;;5127950;28;20459;-59
2022/02/04 08:38:35;;;;;;;10.23;5.73;;;7.50;99.90;;;;;;5126801;28;20480;-56
2022/02/04 08:47:00;;;;;;;8.33;5.70;;;7.50;99.90;;;;;;5126623;28;20464;-52
2022/02/04 08:49:42;;;;;;;10.87;4.50;;;7.50;99.90;;;;;;5126840;28;20499;-55
2022/02/04 08:52:30;;;;;;;11.03;5.80;;;7.50;99.90;;;;;;5126390;28;20440;-55
2022/02/04 08:55:03;;;;;;;10.17;5.20;;;7.50;99.90;;;;;;5126032;28;20438;-55
2022/02/04 08:57:40;;;;;;;8.00;5.73;;;7.60;99.90;;;;;;5125748;28;20565;-55
2022/02/04 09:00:18;;;;;;;8.93;4.93;;;7.60;99.90;;;;;;5124635;28;20508;-58
2022/02/04 09:02:53;;;;;;;7.77;4.20;;;7.60;99.90;;;;;;5125636;28;20554;-55
2022/02/04 09:05:25;;;;;;;10.30;5.37;;;7.70;99.90;;;;;;5125845;28;20493;-60
2022/02/04 09:07:57;;;;;;;9.93;5.13;;;7.70;99.90;;;;;;5125402;28;20443;-58
2022/02/04 09:10:26;;;;;;;11.20;5.60;;;7.70;99.90;;;;;;5125999;28;20468;-59
2022/02/04 09:18:36;;;;;;;7.03;4.37;;;7.80;99.90;;;;;;5105762;28;20436;-58
2022/02/04 09:21:24;;;;;;;7.07;4.30;;;7.80;99.90;;;;;;5105522;28;20465;-58
2022/02/04 09:23:51;;;;;;;6.07;4.17;;;7.80;99.90;;;;;;5105101;28;20442;-59
2022/02/04 09:26:18;;;;;;;8.23;3.43;;;7.80;99.90;;;;;;5104960;28;20452;-58
2022/02/04 09:28:47;;;;;;;9.10;4.63;;;7.80;99.90;;;;;;5104813;28;20531;-60
2022/02/04 09:31:13;;;;;;;5.80;3.70;;;7.80;99.90;;;;;;5105217;28;20545;-59
2022/02/04 09:33:44;;;;;;;10.30;5.37;;;7.80;99.90;;;;;;5103711;28;20535;-59
2022/02/04 09:36:11;;;;;;;5.73;4.17;;;7.80;99.90;;;;;;5104776;28;20448;-57
2022/02/04 09:38:38;;;;;;;9.63;5.20;;;7.70;99.90;;;;;;5103336;28;20460;-55
2022/02/04 09:41:08;;;;;;;9.63;5.60;;;7.80;99.90;;;;;;5105367;28;20482;-54
2022/02/04 09:43:36;;;;;;;6.50;4.47;;;7.80;99.90;;;;;;5104486;28;20443;-59
2022/02/04 09:46:06;;;;;;;7.77;5.20;;;7.70;99.90;;;;;;5106474;28;20463;-57
2022/02/04 09:48:33;;;;;;;7.67;5.10;;;7.70;99.90;;;;;;5106964;28;20735;-60
2022/02/04 09:51:01;;;;;;;8.73;5.70;;;7.80;99.90;;;;;;5106324;28;20490;-61
2022/02/04 10:05:04;;;;;;;13.90;6.47;;;7.70;99.90;;;;;;5104530;28;20427;-60
2022/02/04 10:07:39;;;;;;;7.50;4.43;;;7.70;99.90;;;;;;5103729;28;20463;-56
2022/02/04 10:16:19;;;;;;;9.57;4.97;;;7.60;99.90;;;;;;5022633;28;20426;-58
2022/02/04 10:19:03;;;;;;;10.10;4.83;;;7.70;99.90;;;;;;5097775;28;20438;-59
2022/02/04 10:21:31;;;;;;;8.00;5.20;;;7.70;99.90;;;;;;5101388;28;20449;-60
2022/02/04 10:23:58;;;;;;;10.77;5.50;;;7.70;99.90;;;;;;5102036;28;20514;-60
2022/02/04 10:26:26;;;;;;;7.60;4.50;;;7.70;99.90;;;;;;5101268;28;20828;-59
2022/02/04 10:28:53;;;;;;;10.63;6.27;;;7.70;99.90;;;;;;5101493;28;20526;-60
2022/02/04 10:31:25;;;;;;;9.23;5.27;;;7.70;99.90;;;;;;5100545;28;20482;-60
2022/02/04 10:34:04;;;;;;;7.03;4.20;;;7.80;99.90;;;;;;5103624;28;20745;-62
2022/02/04 10:36:36;;;;;;;6.83;4.03;;;7.80;99.90;;;;;;5104277;28;20455;-60
2022/02/04 10:39:32;;;;;;;10.47;4.73;;;7.90;99.90;;;;;;5101489;28;20448;-55
2022/02/04 10:42:12;;;;;;;7.90;5.10;;;7.90;99.90;;;;;;5101190;28;20463;-61
2022/02/04 10:44:52;;;;;;;7.27;4.37;;;7.90;99.90;;;;;;5115960;28;20488;-61
2022/02/04 10:47:45;;;;;;;9.30;5.80;;;7.90;99.90;;;;;;5122471;28;20508;-59
2022/02/04 10:51:11;;;;;;;9.57;5.30;;;7.90;99.90;;;;;;5122563;28;20483;-60
2022/02/04 10:54:02;;;;;;;75.73;31.27;;;8.00;99.90;;;;;;5122548;28;20992;-66
2022/02/04 11:00:01;;;;;;;7.10;4.13;;;8.00;99.90;;;;;;5122473;28;20774;-60
2022/02/04 11:02:39;;;;;;;8.70;3.87;;;8.10;99.90;;;;;;5121549;28;20482;-58
2022/02/04 11:05:15;;;;;;;8.73;4.53;;;8.20;99.90;;;;;;5122015;28;20447;-64
2022/02/04 11:08:07;;;;;;;8.67;5.00;;;8.30;99.90;;;;;;5120321;28;20468;-60
2022/02/04 11:10:54;;;;;;;4.37;3.53;;;8.30;99.90;;;;;;5119707;28;20580;-58
2022/02/04 11:22:04;;;;;;;10.33;5.30;;;8.60;99.90;;;;;;5123793;28;20404;-60
2022/02/04 11:35:47;;;;;;;7.80;3.80;;;8.90;99.90;;;;;;5120423;28;20439;-61
2022/02/04 11:52:38;;;;;;;31.37;16.93;;;9.00;99.90;;;;;;5099782;28;20556;-59
2022/02/04 11:55:33;;;;;;;6.37;4.67;;;9.10;99.90;;;;;;5099050;28;20489;-60
2022/02/04 11:58:04;;;;;;;5.83;3.77;;;9.00;99.90;;;;;;5098571;28;20445;-55
2022/02/04 12:00:37;;;;;;;7.43;3.30;;;9.00;99.90;;;;;;5099282;28;20468;-60
2022/02/04 12:03:28;;;;;;;6.63;4.10;;;9.00;99.90;;;;;;5098787;28;20473;-60
2022/02/04 12:05:55;;;;;;;7.80;4.83;;;9.00;99.90;;;;;;5100409;28;21702;-59
2022/02/04 12:08:25;;;;;;;4.90;3.73;;;8.90;99.90;;;;;;5101010;28;20506;-58
2022/02/04 12:10:55;;;;;;;3.23;2.93;;;8.90;99.90;;;;;;5101114;28;20492;-60
2022/02/04 12:13:25;;;;;;;4.80;3.33;;;8.90;99.90;;;;;;5103643;28;20481;-56
2022/02/04 12:15:56;;;;;;;8.87;4.00;;;8.80;99.90;;;;;;5104301;28;20465;-63
2022/02/04 12:18:44;;;;;;;4.67;3.73;;;8.80;99.90;;;;;;5103518;28;20469;-55
2022/02/04 12:21:14;;;;;;;6.20;3.57;;;8.90;99.90;;;;;;5104722;28;20456;-62
2022/02/04 12:23:49;;;;;;;6.57;3.30;;;9.00;99.90;;;;;;5101547;28;20471;-61
2022/02/04 12:26:19;;;;;;;5.00;3.60;;;9.10;99.90;;;;;;5099057;28;20456;-60
2022/02/04 12:28:51;;;;;;;6.30;3.77;;;9.20;99.90;;;;;;5099206;28;20466;-59
2022/02/04 12:31:23;;;;;;;3.83;2.40;;;9.30;99.90;;;;;;5102702;28;20603;-63
2022/02/04 12:33:52;;;;;;;6.37;3.40;;;9.30;99.90;;;;;;5103360;28;20529;-61
2022/02/04 12:36:23;;;;;;;4.13;2.90;;;9.40;99.90;;;;;;5101341;28;20493;-58
2022/02/04 12:38:53;;;;;;;5.57;2.80;;;9.40;99.90;;;;;;5101321;28;20847;-58
2022/02/04 12:41:25;;;;;;;3.60;2.20;;;9.30;99.90;;;;;;5099474;28;20469;-60
2022/02/04 12:43:56;;;;;;;5.53;3.20;;;9.30;99.90;;;;;;5098879;28;20442;-55
2022/02/04 12:46:24;;;;;;;3.63;2.30;;;9.30;99.90;;;;;;5099180;28;20467;-60
2022/02/04 12:49:02;;;;;;;3.63;2.43;;;9.40;99.90;;;;;;5098748;28;20449;-57
2022/02/04 12:51:52;;;;;;;5.30;3.30;;;9.40;99.90;;;;;;5098644;28;20771;-59
2022/02/04 12:54:29;;;;;;;5.20;2.87;;;9.40;99.90;;;;;;5099550;28;20469;-54
2022/02/04 12:57:27;;;;;;;3.37;2.30;;;9.40;99.90;;;;;;5099352;28;20464;-59
2022/02/04 12:59:58;;;;;;;5.33;2.70;;;9.40;99.90;;;;;;5104615;28;20464;-59
2022/02/04 13:02:38;;;;;;;8.03;2.47;;;9.30;99.90;;;;;;5103215;28;20556;-59
2022/02/04 13:07:56;;;;;;;3.50;2.20;;;9.30;99.90;;;;;;5099113;28;20850;-59
2022/02/04 13:10:26;;;;;;;3.37;2.50;;;9.30;99.90;;;;;;5102552;28;20448;-56
2022/02/04 13:12:55;;;;;;;5.20;2.57;;;9.30;99.90;;;;;;5102039;28;20547;-58
2022/02/04 13:15:27;;;;;;;4.60;2.93;;;9.30;99.90;;;;;;5102718;28;20966;-58
2022/02/04 13:17:54;;;;;;;3.77;2.60;;;9.20;99.90;;;;;;5102793;28;20472;-56
2022/02/04 13:20:22;;;;;;;5.73;3.63;;;9.20;99.90;;;;;;5103367;28;20540;-57
2022/02/04 13:22:52;;;;;;;4.57;3.77;;;9.30;99.90;;;;;;5102965;28;20438;-59
2022/02/04 13:25:22;;;;;;;6.67;2.90;;;9.30;99.90;;;;;;5102760;28;20502;-61
2022/02/04 13:28:06;;;;;;;5.17;2.50;;;9.40;99.90;;;;;;5104346;28;20503;-55
2022/02/04 13:30:36;;;;;;;4.33;3.27;;;9.40;99.90;;;;;;5106228;28;20469;-60
2022/02/04 13:33:14;;;;;;;3.00;2.20;;;9.40;99.90;;;;;;5102835;28;20949;-55
2022/02/04 13:35:42;;;;;;;3.57;2.87;;;9.40;99.90;;;;;;5101581;28;20462;-57
2022/02/04 13:38:20;;;;;;;5.90;3.03;;;9.30;99.90;;;;;;5102470;28;20461;-59
2022/02/04 13:41:03;;;;;;;6.00;3.67;;;9.30;99.90;;;;;;5102541;28;20914;-57
2022/02/04 13:43:42;;;;;;;3.40;2.90;;;9.30;99.90;;;;;;5101798;28;20519;-56
2022/02/04 13:46:20;;;;;;;5.80;3.17;;;9.30;99.90;;;;;;5091489;28;20453;-59
2022/02/04 13:49:14;;;;;;;2.90;2.23;;;10.00;99.90;;;;;;5091659;28;20496;-57
2022/02/04 13:51:49;;;;;;;2.83;2.20;;;10.00;99.90;;;;;;5092061;28;20462;-57
2022/02/04 13:54:31;;;;;;;3.90;2.80;;;9.80;99.90;;;;;;5094803;28;20451;-57
2022/02/04 13:57:27;;;;;;;3.23;2.57;;;9.70;99.90;;;;;;5098093;28;20439;-63
2022/02/04 14:00:06;;;;;;;4.00;2.63;;;9.60;99.90;;;;;;5089421;28;20461;-59
2022/02/04 14:02:41;;;;;;;6.00;3.03;;;9.60;99.90;;;;;;5097314;28;20457;-58
2022/02/04 14:05:10;;;;;;;2.70;2.10;;;9.60;99.90;;;;;;5091903;28;20512;-55
2022/02/04 14:07:42;;;;;;;4.60;3.13;;;9.60;99.90;;;;;;5092382;28;20478;-58
2022/02/04 14:10:18;;;;;;;3.87;2.63;;;9.60;99.90;;;;;;5089956;28;20448;-57
2022/02/04 14:12:59;;;;;;;3.50;2.27;;;9.50;99.90;;;;;;5098521;28;20577;-54
2022/02/04 14:15:29;;;;;;;7.07;2.57;;;9.50;99.90;;;;;;5101669;28;20458;-58
2022/02/04 14:18:01;;;;;;;3.63;2.30;;;9.50;99.90;;;;;;5101614;28;20506;-53
2022/02/04 14:20:28;;;;;;;3.67;2.50;;;9.50;99.90;;;;;;5097938;28;20430;-53
2022/02/04 14:22:55;;;;;;;3.37;2.13;;;9.50;99.90;;;;;;5091195;28;20498;-58
2022/02/04 14:25:22;;;;;;;3.20;2.17;;;9.50;99.90;;;;;;5094758;28;20459;-60
2022/02/04 14:27:54;;;;;;;2.20;1.63;;;9.40;99.90;;;;;;5097244;28;20887;-57
2022/02/04 14:30:26;;;;;;;4.60;2.27;;;9.30;99.90;;;;;;5090531;28;20964;-58
2022/02/04 14:32:59;;;;;;;3.20;2.40;;;9.30;99.90;;;;;;5098066;28;20473;-58
2022/02/04 14:35:39;;;;;;;3.30;2.10;;;9.40;99.90;;;;;;5098194;28;20435;-57
2022/02/04 14:52:15;;;;;;;1.87;1.60;;;9.30;99.90;;;;;;5077418;28;20470;-55
2022/02/04 14:58:37;;;;;;;1.67;1.57;;;9.30;99.90;;;;;;5104608;28;20482;-59
2022/02/04 15:03:20;;;;;;;3.80;2.40;;;9.40;99.90;;;;;;5101102;28;20457;-52
2022/02/04 15:05:58;;;;;;;2.60;2.07;;;9.30;99.90;;;;;;5100617;28;20438;-59
2022/02/04 15:08:27;;;;;;;2.70;2.23;;;9.40;99.90;;;;;;5101099;28;20528;-56
2022/02/04 15:10:55;;;;;;;1.80;1.40;;;9.40;99.90;;;;;;5101562;28;20529;-58
2022/02/04 15:13:22;;;;;;;1.87;1.23;;;9.30;99.90;;;;;;5101674;28;20546;-59
2022/02/04 15:15:49;;;;;;;1.90;1.43;;;9.30;99.90;;;;;;5101679;28;20774;-54
2022/02/04 15:18:16;;;;;;;4.13;1.83;;;9.30;99.90;;;;;;5102488;28;20538;-59
2022/02/04 15:20:45;;;;;;;2.63;1.83;;;9.30;99.90;;;;;;5104136;28;20517;-60
2022/02/04 15:23:13;;;;;;;2.10;1.40;;;9.30;99.90;;;;;;5103828;28;20442;-59
2022/02/04 15:25:45;;;;;;;2.70;1.37;;;9.30;99.90;;;;;;5100462;28;20449;-54
2022/02/04 15:28:34;;;;;;;1.70;1.37;;;9.20;99.90;;;;;;5099812;28;20431;-61
2022/02/04 15:31:01;;;;;;;2.63;2.00;;;9.20;99.90;;;;;;5099707;28;20476;-55
2022/02/04 15:33:33;;;;;;;2.30;1.07;;;9.20;99.90;;;;;;5099321;28;20807;-57
2022/02/04 15:36:00;;;;;;;2.47;1.87;;;9.20;99.90;;;;;;5099597;28;20473;-58
2022/02/04 15:38:27;;;;;;;1.80;1.23;;;9.20;99.90;;;;;;5099488;28;20459;-59
2022/02/04 15:40:57;;;;;;;1.90;1.37;;;9.20;99.90;;;;;;5099349;28;20815;-57
2022/02/04 15:43:26;;;;;;;1.67;1.10;;;9.20;99.90;;;;;;5099789;28;20430;-59
2022/02/04 15:49:07;;;;;;;2.50;1.50;;;9.10;99.90;;;;;;5084137;28;20471;-60
2022/02/04 15:51:46;;;;;;;2.53;1.50;;;9.10;99.90;;;;;;5103528;28;20748;-57
2022/02/04 15:54:39;;;;;;;3.00;1.63;;;9.10;99.90;;;;;;5101070;28;20480;-60
2022/02/04 15:57:29;;;;;;;1.67;1.30;;;9.00;99.90;;;;;;5099708;28;20459;-58
2022/02/04 16:00:14;;;;;;;1.13;0.90;;;9.10;99.90;;;;;;5100414;28;20821;-59
2022/02/04 16:02:58;;;;;;;1.77;1.20;;;9.10;99.90;;;;;;5110485;28;20450;-59
2022/02/04 16:05:26;;;;;;;2.67;1.23;;;9.10;99.90;;;;;;5080182;28;20488;-57
2022/02/04 16:07:55;;;;;;;1.13;0.80;;;9.10;99.90;;;;;;5085378;28;20443;-60
2022/02/04 16:10:26;;;;;;;1.80;0.80;;;9.00;99.90;;;;;;5087647;28;20469;-61
2022/02/04 16:12:58;;;;;;;1.73;1.37;;;9.00;99.90;;;;;;5089832;28;20507;-56
2022/02/04 16:15:36;;;;;;;3.33;1.10;;;9.00;99.90;;;;;;5086908;28;20430;-59
2022/02/04 16:18:10;;;;;;;1.60;0.90;;;9.00;99.90;;;;;;5092997;28;20488;-61
2022/02/04 16:20:59;;;;;;;1.13;0.97;;;9.00;99.90;;;;;;5090538;28;20446;-55
2022/02/04 16:23:30;;;;;;;1.37;0.80;;;9.00;99.90;;;;;;5088986;28;20463;-61
2022/02/04 16:26:21;;;;;;;1.10;0.80;;;9.10;99.90;;;;;;5090485;28;20525;-61
2022/02/04 16:28:47;;;;;;;1.97;0.90;;;9.10;99.90;;;;;;5095124;28;20458;-60
2022/02/04 16:31:17;;;;;;;1.90;1.13;;;9.10;99.90;;;;;;5089814;28;20899;-58
2022/02/04 16:33:46;;;;;;;1.40;1.00;;;9.00;99.90;;;;;;5088666;28;20474;-54
2022/02/04 16:36:16;;;;;;;1.37;1.23;;;9.00;99.90;;;;;;5087349;28;20435;-59
2022/02/04 16:38:46;;;;;;;1.20;0.90;;;8.90;99.90;;;;;;5088757;28;20484;-60
2022/02/04 16:41:19;;;;;;;1.87;0.90;;;8.90;99.90;;;;;;5087022;28;20481;-59
2022/02/04 16:43:47;;;;;;;1.10;0.70;;;8.90;99.90;;;;;;5090632;28;20445;-59
2022/02/04 16:46:14;;;;;;;1.40;1.10;;;8.90;99.90;;;;;;5091047;28;20458;-59
2022/02/04 16:48:44;;;;;;;1.40;1.20;;;8.90;99.90;;;;;;5090201;28;20752;-57
2022/02/04 16:51:13;;;;;;;0.97;0.77;;;8.90;99.90;;;;;;5082883;28;20516;-61
2022/02/04 16:53:43;;;;;;;1.10;0.80;;;8.90;99.90;;;;;;5083449;28;20473;-60
2022/02/04 16:56:11;;;;;;;1.30;1.20;;;8.90;99.90;;;;;;5091126;28;20459;-59